Terminal Aerodrome Forecast
Issued by NWS

Home | Current Version | Previous Version | Text Only | Print | Product List | Glossary On
Versions: 1 2 3 4 5 6 7 8 9 10 11 12 13 14 15 16 17
000
FTUS45 KFGZ 292300
TAFPRC
TAF
KPRC 292328Z 3000/3024 13009KT 6SM -SHRA BKN045 OVC070
     FM300100 VRB05KT 5SM -SHRA SCT020 OVC040
     FM300400 VRB05KT 3SM -RA BR SCT010 OVC025=

USA.gov is the U.S. government's official web portal to all federal, state and local government web resources and services.